createdAt,value
2023-01-19T00:01:31.100Z,4.95
2023-01-19T00:03:59.299Z,6.20
2023-01-19T00:06:27.251Z,5.50
2023-01-19T00:08:55.236Z,5.70
2023-01-19T00:11:23.062Z,5.95
2023-01-19T00:13:51.913Z,6.50
2023-01-19T00:16:21.699Z,6.22
2023-01-19T00:18:51.860Z,9.07
2023-01-19T00:21:19.723Z,8.13
2023-01-19T00:23:48.548Z,8.98
2023-01-19T00:26:17.365Z,10.43
2023-01-19T00:28:45.716Z,11.10
2023-01-19T00:31:13.897Z,9.68
2023-01-19T00:33:43.668Z,10.00
2023-01-19T00:36:12.934Z,9.75
2023-01-19T00:38:41.138Z,12.43
2023-01-19T00:41:09.086Z,11.70
2023-01-19T00:43:37.771Z,13.00
2023-01-19T00:46:05.862Z,12.25
2023-01-19T00:48:33.805Z,11.20
2023-01-19T00:51:01.640Z,10.90
2023-01-19T00:53:32.651Z,10.43
2023-01-19T00:56:00.658Z,8.68
2023-01-19T00:58:28.591Z,10.80
2023-01-19T01:00:57.859Z,9.18
2023-01-19T01:03:28.254Z,9.95
2023-01-19T01:05:56.292Z,10.27
2023-01-19T01:08:24.215Z,9.02
2023-01-19T01:10:53.556Z,9.40
2023-01-19T01:13:23.642Z,9.75
2023-01-19T01:15:53.900Z,11.45
2023-01-19T01:18:22.538Z,9.48
2023-01-19T01:20:50.440Z,13.90
2023-01-19T01:23:23.085Z,10.27
2023-01-19T01:25:51.065Z,6.88
2023-01-19T01:28:20.869Z,7.35
2023-01-19T01:30:48.965Z,7.38
2023-01-19T01:33:40.773Z,6.85
2023-01-19T01:36:05.202Z,7.75
2023-01-19T01:38:33.336Z,7.78
2023-01-19T01:41:01.171Z,6.50
2023-01-19T01:43:42.736Z,7.00
2023-01-19T01:46:11.857Z,5.55
2023-01-19T01:48:40.644Z,5.43
2023-01-19T01:51:26.167Z,4.88
2023-01-19T01:53:59.228Z,4.90
2023-01-19T01:56:29.473Z,5.15
2023-01-19T01:58:59.541Z,4.15
2023-01-19T02:01:44.950Z,4.72
2023-01-19T02:04:12.919Z,4.00
2023-01-19T02:06:58.266Z,4.15
2023-01-19T02:09:43.847Z,3.88
2023-01-19T02:12:29.581Z,3.70
2023-01-19T02:14:59.616Z,3.20
2023-01-19T02:17:27.623Z,3.97
2023-01-19T02:19:55.717Z,3.50
2023-01-19T02:22:26.324Z,3.03
2023-01-19T02:24:55.649Z,3.05
2023-01-19T02:27:23.753Z,2.75
2023-01-19T02:29:51.914Z,2.92
2023-01-19T02:32:19.794Z,2.92
2023-01-19T02:34:47.793Z,2.53
2023-01-19T02:37:17.302Z,2.70
2023-01-19T02:39:46.934Z,2.90
2023-01-19T02:42:18.680Z,2.08
2023-01-19T02:44:48.289Z,2.20
2023-01-19T02:47:16.308Z,1.90
2023-01-19T02:49:44.266Z,1.98
2023-01-19T02:52:16.043Z,2.08
2023-01-19T02:54:50.679Z,1.85
2023-01-19T02:57:32.889Z,1.83
2023-01-19T03:00:08.085Z,1.95
2023-01-19T03:02:43.760Z,1.90
2023-01-19T03:05:20.280Z,1.85
2023-01-19T03:07:52.239Z,1.30
2023-01-19T03:10:24.247Z,2.10
2023-01-19T03:12:57.933Z,1.40
2023-01-19T03:15:28.481Z,1.48
2023-01-19T03:17:57.458Z,1.55
2023-01-19T03:20:28.807Z,1.40
2023-01-19T03:22:59.214Z,1.27
2023-01-19T03:25:27.300Z,1.35
2023-01-19T03:27:58.382Z,1.05
2023-01-19T03:30:27.999Z,1.20
2023-01-19T03:33:00.208Z,0.93
2023-01-19T03:35:31.611Z,1.15
2023-01-19T03:38:01.795Z,1.33
2023-01-19T03:40:31.655Z,1.23
2023-01-19T03:43:02.091Z,1.30
2023-01-19T03:45:31.305Z,0.93
2023-01-19T03:48:00.006Z,1.60
2023-01-19T03:50:29.648Z,1.48
2023-01-19T03:53:07.379Z,1.33
2023-01-19T03:55:36.587Z,1.60
2023-01-19T03:58:05.917Z,1.17
2023-01-19T04:00:34.674Z,1.27
2023-01-19T04:03:03.278Z,1.50
2023-01-19T04:05:31.677Z,1.25
2023-01-19T04:07:59.614Z,1.17
2023-01-19T04:10:27.502Z,1.20
2023-01-19T04:12:58.300Z,1.02
2023-01-19T04:15:27.881Z,1.40
2023-01-19T04:17:56.020Z,1.50
2023-01-19T04:20:23.951Z,1.00
2023-01-19T04:22:51.790Z,0.80
2023-01-19T04:25:19.721Z,0.98
2023-01-19T04:27:47.643Z,0.98
2023-01-19T04:30:16.579Z,0.80
2023-01-19T04:32:46.753Z,1.20
2023-01-19T04:35:14.651Z,1.25
2023-01-19T04:37:42.530Z,1.00
2023-01-19T04:40:11.182Z,0.63
2023-01-19T04:42:39.053Z,0.90
2023-01-19T04:45:07.622Z,1.20
2023-01-19T04:47:35.572Z,0.75
2023-01-19T04:50:05.683Z,0.80
2023-01-19T04:52:35.660Z,0.98
2023-01-19T04:55:03.805Z,0.70
2023-01-19T04:57:31.825Z,0.50
2023-01-19T04:59:59.760Z,0.57
2023-01-19T05:02:27.972Z,0.70
2023-01-19T05:04:55.974Z,0.70
2023-01-19T05:07:25.237Z,1.00
2023-01-19T05:09:53.953Z,0.75
2023-01-19T05:12:22.146Z,0.70
2023-01-19T05:14:50.164Z,0.60
2023-01-19T05:17:18.359Z,1.10
2023-01-19T05:19:46.438Z,0.68
2023-01-19T05:22:14.494Z,0.50
2023-01-19T05:24:44.840Z,0.80
2023-01-19T05:27:13.220Z,0.57
2023-01-19T05:29:41.421Z,0.90
2023-01-19T05:32:09.323Z,0.80
2023-01-19T05:34:38.187Z,1.30
2023-01-19T05:37:06.135Z,1.05
2023-01-19T05:39:34.213Z,1.20
2023-01-19T05:42:03.534Z,0.98
2023-01-19T05:44:31.595Z,1.38
2023-01-19T05:46:59.517Z,2.42
2023-01-19T05:49:27.365Z,1.00
2023-01-19T05:51:55.291Z,1.00
2023-01-19T05:54:23.828Z,1.67
2023-01-19T05:56:51.690Z,0.90
2023-01-19T05:59:24.191Z,2.40
2023-01-19T06:01:52.354Z,1.10
2023-01-19T06:04:20.430Z,0.98
2023-01-19T06:06:48.589Z,0.82
2023-01-19T06:09:17.372Z,0.95
2023-01-19T06:11:45.382Z,0.80
2023-01-19T06:14:13.669Z,1.20
2023-01-19T06:16:51.010Z,1.33
2023-01-19T06:19:19.135Z,0.87
2023-01-19T06:21:49.879Z,0.70
2023-01-19T06:24:18.481Z,0.90
2023-01-19T06:26:46.371Z,1.00
2023-01-19T06:29:14.703Z,1.73
2023-01-19T06:31:44.170Z,1.30
2023-01-19T06:34:12.046Z,1.35
2023-01-19T06:36:39.930Z,1.60
2023-01-19T06:39:07.923Z,1.40
2023-01-19T06:41:36.143Z,1.70
2023-01-19T06:44:04.296Z,1.80
2023-01-19T06:46:35.130Z,2.63
2023-01-19T06:49:04.592Z,1.67
2023-01-19T06:51:32.995Z,1.90
2023-01-19T06:54:00.978Z,2.35
2023-01-19T06:56:29.099Z,1.70
2023-01-19T06:58:57.164Z,1.92
2023-01-19T07:01:25.479Z,2.10
2023-01-19T07:03:53.467Z,2.05
2023-01-19T07:06:23.002Z,2.10
2023-01-19T07:08:51.387Z,2.47
2023-01-19T07:11:26.263Z,2.35
2023-01-19T07:13:59.594Z,2.40
2023-01-19T07:16:27.508Z,2.20
2023-01-19T07:18:55.421Z,2.70
2023-01-19T07:21:25.045Z,2.72
2023-01-19T07:23:53.667Z,2.78
2023-01-19T07:26:22.052Z,3.15
2023-01-19T07:28:50.233Z,3.35
2023-01-19T07:31:19.161Z,3.42
2023-01-19T07:33:47.149Z,4.20
2023-01-19T07:36:16.063Z,3.95
2023-01-19T07:38:45.396Z,3.70
2023-01-19T07:41:13.820Z,4.00
2023-01-19T07:43:41.838Z,4.55
2023-01-19T07:46:09.967Z,4.50
2023-01-19T07:48:38.145Z,4.15
2023-01-19T07:51:10.438Z,4.43
2023-01-19T07:53:42.050Z,3.97
2023-01-19T07:56:11.849Z,4.20
2023-01-19T07:58:39.937Z,4.38
2023-01-19T08:01:12.116Z,3.80
2023-01-19T08:03:40.058Z,4.32
2023-01-19T08:06:08.677Z,3.63
2023-01-19T08:08:36.697Z,5.22
2023-01-19T08:11:04.911Z,4.80
2023-01-19T08:13:34.183Z,5.57
2023-01-19T08:16:02.064Z,5.93
2023-01-19T08:18:30.079Z,6.35
2023-01-19T08:20:59.580Z,5.82
2023-01-19T08:23:28.172Z,5.55
2023-01-19T08:25:56.115Z,6.20
2023-01-19T08:28:24.087Z,4.55
2023-01-19T08:30:55.556Z,6.07
2023-01-19T08:33:24.347Z,4.35
2023-01-19T08:35:53.312Z,5.82
2023-01-19T08:38:21.559Z,5.28
2023-01-19T08:40:49.841Z,5.00
2023-01-19T08:43:18.535Z,4.40
2023-01-19T08:45:48.488Z,5.63
2023-01-19T08:48:19.112Z,4.32
2023-01-19T08:50:47.851Z,5.47
2023-01-19T08:53:16.272Z,5.68
2023-01-19T08:55:45.537Z,5.05
2023-01-19T08:58:13.407Z,5.82
2023-01-19T09:00:41.329Z,5.72
2023-01-19T09:03:10.412Z,5.80
2023-01-19T09:05:39.889Z,5.22
2023-01-19T09:08:09.402Z,6.00
2023-01-19T09:10:38.084Z,5.78
2023-01-19T09:13:08.374Z,5.90
2023-01-19T09:15:37.876Z,6.50
2023-01-19T09:18:07.039Z,6.28
2023-01-19T09:20:36.334Z,8.00
2023-01-19T09:23:06.207Z,6.55
2023-01-19T09:25:34.229Z,6.47
2023-01-19T09:28:02.653Z,6.97
2023-01-19T09:30:31.346Z,6.88
2023-01-19T09:33:02.689Z,6.22
2023-01-19T09:35:31.979Z,6.30
2023-01-19T09:38:00.229Z,5.90
2023-01-19T09:40:30.117Z,6.45
2023-01-19T09:42:59.536Z,6.07
2023-01-19T09:45:30.818Z,6.45
2023-01-19T09:48:00.004Z,6.15
2023-01-19T09:50:29.934Z,6.13
2023-01-19T09:53:01.478Z,6.30
2023-01-19T09:55:32.398Z,5.85
2023-01-19T09:58:00.817Z,5.72
2023-01-19T10:00:29.977Z,5.75
2023-01-19T10:03:00.436Z,9.55
2023-01-19T10:05:31.476Z,5.93
2023-01-19T10:08:08.725Z,6.63
2023-01-19T10:10:42.368Z,5.35
2023-01-19T10:13:28.353Z,6.85
2023-01-19T10:16:01.066Z,6.65
2023-01-19T10:18:35.018Z,7.68
2023-01-19T10:21:05.951Z,8.27
2023-01-19T10:23:38.475Z,9.20
2023-01-19T10:26:10.566Z,10.43
2023-01-19T10:28:39.753Z,10.38
2023-01-19T10:31:09.701Z,10.60
2023-01-19T10:33:38.048Z,9.82
2023-01-19T10:36:06.915Z,9.68
2023-01-19T10:38:36.005Z,9.20
2023-01-19T10:41:06.397Z,9.18
2023-01-19T10:43:40.158Z,10.23
2023-01-19T10:46:08.989Z,9.18
2023-01-19T10:48:38.928Z,8.50
2023-01-19T10:51:07.341Z,9.20
2023-01-19T10:53:35.372Z,9.05
2023-01-19T10:56:14.616Z,9.32
2023-01-19T10:58:44.182Z,8.70
2023-01-19T11:01:16.178Z,8.95
2023-01-19T11:03:44.582Z,8.98
2023-01-19T11:06:23.130Z,8.60
2023-01-19T11:08:51.976Z,8.60
2023-01-19T11:11:20.214Z,10.30
2023-01-19T11:14:06.037Z,8.40
2023-01-19T11:16:34.910Z,7.68
2023-01-19T11:19:03.642Z,7.97
2023-01-19T11:21:33.631Z,7.88
2023-01-19T11:24:05.891Z,9.15
2023-01-19T11:26:35.564Z,7.68
2023-01-19T11:29:08.412Z,7.90
2023-01-19T11:31:36.636Z,7.60
2023-01-19T11:34:05.530Z,7.40
2023-01-19T11:36:35.737Z,7.20
2023-01-19T11:39:21.884Z,7.88
2023-01-19T11:41:51.056Z,7.97
2023-01-19T11:44:22.553Z,7.95
2023-01-19T11:46:53.243Z,8.57
2023-01-19T11:49:23.088Z,8.23
2023-01-19T11:51:53.547Z,9.50
2023-01-19T11:54:23.847Z,8.10
2023-01-19T11:56:53.152Z,9.00
2023-01-19T11:59:24.160Z,9.50
2023-01-19T12:01:54.896Z,8.57
2023-01-19T12:04:26.214Z,9.00
2023-01-19T12:06:55.650Z,8.75
2023-01-19T12:09:26.436Z,8.20
2023-01-19T12:11:58.479Z,8.45
2023-01-19T12:14:29.884Z,9.05
2023-01-19T12:17:00.421Z,9.30
2023-01-19T12:19:31.975Z,10.40
2023-01-19T12:22:00.515Z,10.10
2023-01-19T12:24:30.126Z,9.20
2023-01-19T12:26:58.973Z,10.98
2023-01-19T12:29:29.928Z,10.98
2023-01-19T12:32:17.542Z,11.07
2023-01-19T12:34:46.987Z,10.25
2023-01-19T12:37:33.822Z,11.50
2023-01-19T12:40:02.664Z,10.52
2023-01-19T12:42:31.482Z,10.77
2023-01-19T12:45:08.798Z,10.52
2023-01-19T12:47:37.818Z,11.43
2023-01-19T12:50:08.158Z,11.20
2023-01-19T12:52:36.977Z,10.63
2023-01-19T12:55:16.332Z,10.70
2023-01-19T12:57:50.481Z,10.95
2023-01-19T13:00:32.374Z,10.95
2023-01-19T13:03:01.541Z,14.15
2023-01-19T13:05:48.527Z,12.68
2023-01-19T13:08:17.554Z,10.68
2023-01-19T13:10:55.795Z,11.85
2023-01-19T13:15:55.598Z,10.60
2023-01-19T13:18:25.043Z,10.07
2023-01-19T13:20:55.811Z,10.82
2023-01-19T13:23:25.529Z,10.57
2023-01-19T13:25:55.001Z,11.48
2023-01-19T13:28:27.469Z,11.63
2023-01-19T13:30:59.343Z,11.77
2023-01-19T13:33:29.356Z,12.68
2023-01-19T13:36:00.665Z,11.77
2023-01-19T13:38:29.451Z,11.10
2023-01-19T13:40:58.278Z,10.77
2023-01-19T13:43:29.277Z,9.98
2023-01-19T13:45:59.233Z,10.48
2023-01-19T13:48:27.693Z,10.63
2023-01-19T13:50:59.877Z,10.77
2023-01-19T13:53:27.931Z,10.48
2023-01-19T13:56:12.010Z,10.38
2023-01-19T13:58:40.045Z,11.85
2023-01-19T14:01:21.032Z,9.88
2023-01-19T14:03:52.285Z,11.20
2023-01-19T14:06:32.916Z,11.20
2023-01-19T14:09:07.614Z,12.68
2023-01-19T14:11:35.727Z,12.82
2023-01-19T14:14:04.078Z,12.02
2023-01-19T14:16:34.154Z,11.45
2023-01-19T14:19:03.206Z,12.30
2023-01-19T14:21:38.636Z,12.95
2023-01-19T14:24:10.701Z,12.60
2023-01-19T14:26:43.614Z,12.02
2023-01-19T14:29:19.901Z,13.45
2023-01-19T14:31:50.056Z,14.13
2023-01-19T14:34:31.212Z,12.45
2023-01-19T14:36:59.491Z,13.05
2023-01-19T14:39:28.787Z,12.63
2023-01-19T14:41:58.889Z,12.85
2023-01-19T14:44:32.470Z,12.63
2023-01-19T14:47:02.282Z,13.38
2023-01-19T14:49:35.401Z,13.88
2023-01-19T14:52:04.483Z,14.65
2023-01-19T14:54:34.850Z,14.65
2023-01-19T14:57:03.118Z,15.77
2023-01-19T14:59:31.291Z,15.07
2023-01-19T15:02:01.010Z,14.90
2023-01-19T15:04:31.110Z,14.55
2023-01-19T15:06:59.293Z,15.27
2023-01-19T15:09:27.467Z,15.90
2023-01-19T15:11:55.406Z,15.98
2023-01-19T15:14:23.431Z,15.68
2023-01-19T15:16:51.712Z,16.85
2023-01-19T15:19:19.824Z,17.10
2023-01-19T15:21:49.234Z,16.45
2023-01-19T15:24:18.077Z,16.30
2023-01-19T15:26:46.728Z,17.35
2023-01-19T15:29:19.087Z,16.65
2023-01-19T15:31:47.876Z,19.50
2023-01-19T15:34:16.511Z,16.83
2023-01-19T15:36:44.434Z,18.50
2023-01-19T15:39:13.791Z,18.63
2023-01-19T15:41:41.837Z,18.13
2023-01-19T15:44:13.741Z,17.88
2023-01-19T15:46:41.878Z,18.83
2023-01-19T15:49:09.784Z,18.42
2023-01-19T15:51:38.309Z,19.08
2023-01-19T15:54:06.496Z,18.23
2023-01-19T15:56:35.871Z,18.70
2023-01-19T15:59:03.912Z,19.20
2023-01-19T16:01:34.015Z,18.75
2023-01-19T16:04:03.291Z,19.92
2023-01-19T16:06:31.769Z,20.10
2023-01-19T16:09:01.516Z,18.83
2023-01-19T16:11:31.521Z,20.02
2023-01-19T16:14:01.142Z,21.17
2023-01-19T16:16:29.462Z,22.40
2023-01-19T16:18:57.915Z,21.02
2023-01-19T16:21:28.692Z,21.10
2023-01-19T16:24:03.974Z,22.45
2023-01-19T16:26:34.497Z,21.67
2023-01-19T16:29:08.007Z,20.05
2023-01-19T16:31:36.514Z,21.08
2023-01-19T16:34:04.927Z,20.40
2023-01-19T16:36:35.757Z,19.92
2023-01-19T16:39:05.215Z,21.25
2023-01-19T16:41:35.601Z,20.10
2023-01-19T16:44:05.157Z,22.95
2023-01-19T16:46:35.283Z,21.75
2023-01-19T16:49:05.649Z,20.60
2023-01-19T16:51:34.142Z,20.38
2023-01-19T16:54:02.093Z,19.08
2023-01-19T16:56:30.607Z,21.77
2023-01-19T16:58:59.563Z,18.90
2023-01-19T17:01:29.626Z,19.85
2023-01-19T17:03:58.087Z,19.00
2023-01-19T17:06:26.660Z,20.05
2023-01-19T17:08:55.474Z,17.88
2023-01-19T17:11:24.350Z,17.90
2023-01-19T17:13:54.642Z,19.02
2023-01-19T17:16:22.953Z,17.13
2023-01-19T17:18:52.727Z,18.27
2023-01-19T17:21:21.137Z,18.65
2023-01-19T17:23:50.570Z,18.70
2023-01-19T17:26:19.203Z,19.20
2023-01-19T17:28:47.613Z,18.58
2023-01-19T17:31:16.511Z,19.75
2023-01-19T17:33:45.164Z,17.42
2023-01-19T17:36:15.467Z,17.70
2023-01-19T17:38:43.502Z,17.77
2023-01-19T17:41:15.564Z,19.40
2023-01-19T17:43:43.498Z,16.45
2023-01-19T17:46:11.561Z,17.35
2023-01-19T17:48:39.825Z,17.33
2023-01-19T17:51:08.791Z,17.13
2023-01-19T17:53:39.040Z,16.95
2023-01-19T17:56:07.916Z,17.30
2023-01-19T17:58:36.089Z,16.05
2023-01-19T18:01:09.032Z,14.68
2023-01-19T18:03:37.213Z,17.00
2023-01-19T18:06:05.223Z,15.95
2023-01-19T18:08:34.800Z,17.08
2023-01-19T18:11:04.455Z,18.17
2023-01-19T18:13:33.105Z,17.00
2023-01-19T18:16:01.460Z,16.73
2023-01-19T18:18:29.536Z,18.88
2023-01-19T18:20:59.242Z,17.88
2023-01-19T18:23:27.215Z,18.48
2023-01-19T18:26:01.496Z,17.50
2023-01-19T18:28:31.188Z,16.30
2023-01-19T18:31:00.007Z,16.65
2023-01-19T18:33:29.351Z,17.65
2023-01-19T18:35:57.249Z,16.30
2023-01-19T18:38:25.786Z,16.13
2023-01-19T18:41:01.189Z,15.65
2023-01-19T18:43:31.184Z,15.25
2023-01-19T18:45:59.289Z,15.25
2023-01-19T18:48:27.280Z,14.25
2023-01-19T18:50:55.584Z,14.73
2023-01-19T18:53:24.281Z,14.57
2023-01-19T18:55:52.973Z,14.35
2023-01-19T18:58:21.387Z,13.85
2023-01-19T19:00:51.228Z,14.75
2023-01-19T19:03:19.217Z,14.20
2023-01-19T19:05:47.136Z,15.27
2023-01-19T19:08:15.177Z,14.20
2023-01-19T19:10:43.017Z,14.68
2023-01-19T19:13:12.432Z,14.70
2023-01-19T19:15:40.513Z,14.98
2023-01-19T19:18:13.225Z,15.45
2023-01-19T19:20:42.142Z,14.30
2023-01-19T19:23:11.133Z,15.23
2023-01-19T19:25:39.122Z,16.38
2023-01-19T19:28:07.443Z,15.82
2023-01-19T19:30:37.952Z,16.13
2023-01-19T19:33:06.291Z,17.20
2023-01-19T19:35:35.750Z,16.98
2023-01-19T19:38:03.767Z,15.55
2023-01-19T19:40:32.353Z,15.50
2023-01-19T19:43:00.433Z,16.95
2023-01-19T19:45:28.437Z,16.60
2023-01-19T19:47:57.553Z,15.95
2023-01-19T19:50:25.516Z,15.18
2023-01-19T19:52:54.923Z,17.63
2023-01-19T19:55:23.019Z,18.50
2023-01-19T19:57:50.984Z,17.45
2023-01-19T20:00:19.126Z,17.08
2023-01-19T20:02:47.277Z,17.95
2023-01-19T20:05:17.751Z,18.40
2023-01-19T20:07:47.275Z,18.42
2023-01-19T20:10:16.950Z,18.27
2023-01-19T20:12:44.844Z,18.20
2023-01-19T20:15:13.015Z,16.98
2023-01-19T20:17:41.023Z,15.85
2023-01-19T20:20:09.909Z,15.15
2023-01-19T20:22:37.885Z,15.63
2023-01-19T20:25:06.522Z,15.70
2023-01-19T20:27:36.509Z,17.05
2023-01-19T20:30:05.167Z,15.95
2023-01-19T20:32:35.039Z,14.80
2023-01-19T20:35:03.131Z,16.33
2023-01-19T20:37:31.289Z,14.98
2023-01-19T20:39:59.430Z,15.50
2023-01-19T20:42:27.439Z,15.80
2023-01-19T20:44:56.914Z,15.57
2023-01-19T20:47:25.457Z,14.85
2023-01-19T20:49:53.423Z,16.08
2023-01-19T20:52:21.698Z,15.95
2023-01-19T20:54:49.988Z,14.32
2023-01-19T20:57:18.086Z,15.50
2023-01-19T20:59:46.264Z,14.85
2023-01-19T21:02:17.628Z,15.55
2023-01-19T21:04:46.482Z,15.23
2023-01-19T21:07:14.510Z,15.43
2023-01-19T21:09:42.586Z,16.40
2023-01-19T21:12:11.179Z,15.77
2023-01-19T21:14:40.328Z,17.30
2023-01-19T21:17:08.382Z,17.05
2023-01-19T21:19:37.780Z,16.15
2023-01-19T21:22:05.790Z,19.40
2023-01-19T21:24:33.696Z,19.60
2023-01-19T21:27:01.636Z,16.90
2023-01-19T21:29:29.576Z,18.42
2023-01-19T21:31:57.512Z,16.85
2023-01-19T21:34:25.552Z,16.10
2023-01-19T21:36:54.839Z,18.05
2023-01-19T21:39:22.919Z,18.75
2023-01-19T21:41:50.907Z,17.38
2023-01-19T21:44:18.816Z,19.00
2023-01-19T21:46:48.357Z,18.08
2023-01-19T21:49:18.285Z,17.38
2023-01-19T21:51:47.939Z,17.00
2023-01-19T21:54:17.544Z,17.20
2023-01-19T21:56:45.688Z,18.95
2023-01-19T21:59:14.784Z,18.35
2023-01-19T22:01:43.460Z,15.80
2023-01-19T22:04:11.446Z,15.75
2023-01-19T22:06:39.466Z,15.63
2023-01-19T22:09:08.113Z,15.55
2023-01-19T22:11:37.439Z,16.27
2023-01-19T22:14:05.337Z,15.45
2023-01-19T22:16:34.023Z,16.15
2023-01-19T22:19:02.612Z,16.33
2023-01-19T22:21:32.706Z,17.42
2023-01-19T22:24:02.430Z,15.40
2023-01-19T22:26:31.271Z,14.77
2023-01-19T22:29:02.594Z,14.18
2023-01-19T22:31:31.034Z,14.95
2023-01-19T22:33:59.773Z,15.15
2023-01-19T22:36:28.565Z,14.55
2023-01-19T22:38:57.226Z,14.10
2023-01-19T22:41:25.777Z,14.73
2023-01-19T22:43:54.787Z,19.02
2023-01-19T22:46:25.165Z,15.18
2023-01-19T22:48:53.752Z,14.73
2023-01-19T22:51:22.092Z,15.27
2023-01-19T22:53:49.988Z,15.55
2023-01-19T22:56:37.283Z,15.25
2023-01-19T22:59:05.580Z,14.75
2023-01-19T23:01:36.573Z,14.77
2023-01-19T23:04:05.717Z,14.23
2023-01-19T23:06:34.394Z,15.63
2023-01-19T23:09:03.265Z,15.45
2023-01-19T23:11:35.706Z,14.02
2023-01-19T23:14:04.577Z,15.85
2023-01-19T23:16:32.616Z,15.02
2023-01-19T23:19:01.937Z,14.77
2023-01-19T23:21:31.234Z,14.52
2023-01-19T23:24:00.241Z,13.25
2023-01-19T23:26:28.805Z,13.40
2023-01-19T23:29:00.345Z,13.40
2023-01-19T23:31:29.507Z,14.48
2023-01-19T23:33:58.041Z,14.35
2023-01-19T23:36:28.052Z,14.00
2023-01-19T23:38:57.270Z,14.55
2023-01-19T23:41:25.911Z,12.93
2023-01-19T23:43:53.879Z,12.55
2023-01-19T23:46:21.909Z,13.23
2023-01-19T23:48:50.130Z,14.88
2023-01-19T23:51:20.038Z,13.68
2023-01-19T23:53:49.657Z,14.25
2023-01-19T23:56:18.690Z,13.27
2023-01-19T23:58:48.533Z,14.50
